Time;durP1;ratioP1;P1;durP2;ratioP2;P2;SDS_P1;SDS_P2;PMS_P1;PMS_P2;Temp;Humidity;BMP_temperature;BMP_pressure;BME280_temperature;BME280_humidity;BME280_pressure;Samples;Min_cycle;Max_cycle;Signal;HPM_P1;HPM_P2
2022/10/20 00:00:16;;;;;;;;;;;;;;;;;;5114800;28;20256;-81
2022/10/20 00:02:41;;;;;;;;;;;;;;;;;;5114545;28;19916;-80
2022/10/20 00:05:07;;;;;;;;;;;;;;;;;;5114707;28;19916;-80
2022/10/20 00:07:32;;;;;;;;;;;;;;;;;;5114746;28;19920;-81
2022/10/20 00:09:58;;;;;;;;;;;;;;;;;;5114814;28;20349;-82
2022/10/20 00:12:23;;;;;;;;;;;;;;;;;;5115170;28;19916;-82
2022/10/20 00:14:48;;;;;;;;;;;;;;;;;;5114809;28;19916;-81
2022/10/20 00:17:14;;;;;;;;;;;;;;;;;;5097861;28;20014;-81
2022/10/20 00:19:39;;;;;;;;;;;;;;;;;;5097436;28;19923;-81
2022/10/20 00:22:06;;;;;;;;;;;;;;;;;;5096813;28;20344;-81
2022/10/20 00:24:31;;;;;;;;;;;;;;;;;;5114921;28;19916;-81
2022/10/20 00:26:57;;;;;;;;;;;;;;;;;;5113403;28;20257;-81
2022/10/20 00:29:22;;;;;;;;;;;;;;;;;;5114730;28;19981;-82
2022/10/20 00:31:47;;;;;;;;;;;;;;;;;;5114526;28;20018;-81
2022/10/20 00:34:13;;;;;;;;;;;;;;;;;;5114550;28;19916;-81
2022/10/20 00:36:38;;;;;;;;;;;;;;;;;;5113495;28;20360;-81
2022/10/20 00:39:04;;;;;;;;;;;;;;;;;;5114384;28;20010;-81
2022/10/20 00:41:29;;;;;;;;;;;;;;;;;;5114408;28;19923;-81
2022/10/20 00:44:02;;;;;;;;;;;;;;;;;;5113574;28;19915;-81
2022/10/20 00:46:37;;;;;;;;;;;;;;;;;;5114134;28;19915;-81
2022/10/20 00:49:07;;;;;;;;;;;;;;;;;;5113106;28;19970;-81
2022/10/20 00:51:32;;;;;;;;;;;;;;;;;;5113418;28;19916;-81
2022/10/20 00:54:07;;;;;;;;;;;;;;;;;;5113089;28;19923;-81
2022/10/20 00:56:33;;;;;;;;;;;;;;;;;;5113098;28;19916;-82
2022/10/20 00:58:59;;;;;;;;;;;;;;;;;;5095920;28;19923;-82
2022/10/20 01:01:24;;;;;;;;;;;;;;;;;;5113354;28;19916;-81
2022/10/20 01:03:50;;;;;;;;;;;;;;;;;;5114053;28;19916;-82
2022/10/20 01:06:17;;;;;;;;;;;;;;;;;;5117921;28;19916;-81
2022/10/20 01:08:42;;;;;;;;;;;;;;;;;;5118265;28;19916;-81
2022/10/20 01:11:20;;;;;;;;;;;;;;;;;;5117810;28;19915;-82
2022/10/20 01:14:01;;;;;;;;;;;;;;;;;;5117630;28;20321;-83
2022/10/20 01:16:32;;;;;;;;;;;;;;;;;;5116841;28;20289;-81
2022/10/20 01:19:02;;;;;;;;;;;;;;;;;;5117720;28;19920;-82
2022/10/20 01:21:27;;;;;;;;;;;;;;;;;;5117055;28;19916;-83
2022/10/20 01:24:00;;;;;;;;;;;;;;;;;;5117731;28;19916;-82
2022/10/20 01:26:42;;;;;;;;;;;;;;;;;;5116552;28;19916;-83
2022/10/20 01:29:15;;;;;;;;;;;;;;;;;;5116445;28;19915;-81
2022/10/20 01:31:47;;;;;;;;;;;;;;;;;;5117563;28;19923;-81
2022/10/20 01:34:32;;;;;;;;;;;;;;;;;;5116589;28;19934;-80
2022/10/20 01:37:06;;;;;;;;;;;;;;;;;;5117387;28;19922;-82
2022/10/20 01:39:39;;;;;;;;;;;;;;;;;;5117265;28;19923;-81
2022/10/20 01:42:08;;;;;;;;;;;;;;;;;;5116107;28;19916;-81
2022/10/20 01:44:34;;;;;;;;;;;;;;;;;;5117057;28;19919;-82
2022/10/20 01:46:59;;;;;;;;;;;;;;;;;;5116080;28;19916;-81
2022/10/20 01:49:24;;;;;;;;;;;;;;;;;;5116066;28;19922;-83
2022/10/20 01:51:50;;;;;;;;;;;;;;;;;;5117142;28;20002;-81
2022/10/20 01:54:22;;;;;;;;;;;;;;;;;;5115930;28;19923;-81
2022/10/20 01:56:51;;;;;;;;;;;;;;;;;;5116688;28;19919;-81
2022/10/20 01:59:21;;;;;;;;;;;;;;;;;;5116962;28;19915;-81
2022/10/20 02:01:52;;;;;;;;;;;;;;;;;;5115842;28;19954;-81
2022/10/20 02:04:18;;;;;;;;;;;;;;;;;;5116906;28;19916;-81
2022/10/20 02:06:43;;;;;;;;;;;;;;;;;;5098459;28;19927;-81
2022/10/20 02:09:19;;;;;;;;;;;;;;;;;;5116892;28;19915;-82
2022/10/20 02:11:44;;;;;;;;;;;;;;;;;;5115233;28;19916;-81
2022/10/20 02:14:10;;;;;;;;;;;;;;;;;;5098569;28;19924;-82
2022/10/20 02:16:36;;;;;;;;;;;;;;;;;;5115406;28;20291;-82
2022/10/20 02:19:02;;;;;;;;;;;;;;;;;;5115430;28;19951;-81
2022/10/20 02:21:27;;;;;;;;;;;;;;;;;;5116896;28;19943;-82
2022/10/20 02:23:53;;;;;;;;;;;;;;;;;;5116639;28;19923;-82
2022/10/20 02:26:19;;;;;;;;;;;;;;;;;;5115371;28;19922;-81
2022/10/20 02:28:47;;;;;;;;;;;;;;;;;;5115392;28;20010;-82
2022/10/20 02:31:12;;;;;;;;;;;;;;;;;;5116519;28;19916;-81
2022/10/20 02:33:37;;;;;;;;;;;;;;;;;;5116340;28;19992;-81
2022/10/20 02:36:03;;;;;;;;;;;;;;;;;;5115002;28;19916;-81
2022/10/20 02:38:29;;;;;;;;;;;;;;;;;;5116202;28;19915;-83
2022/10/20 02:40:54;;;;;;;;;;;;;;;;;;5098248;28;20014;-81
2022/10/20 02:43:19;;;;;;;;;;;;;;;;;;5116211;28;19923;-81
2022/10/20 02:45:45;;;;;;;;;;;;;;;;;;5116131;28;20000;-82
2022/10/20 02:48:10;;;;;;;;;;;;;;;;;;5098141;28;19916;-82
2022/10/20 02:50:35;;;;;;;;;;;;;;;;;;5098010;28;19919;-83
2022/10/20 02:53:01;;;;;;;;;;;;;;;;;;5097917;28;19985;-84
2022/10/20 02:55:26;;;;;;;;;;;;;;;;;;5116184;28;19916;-83
2022/10/20 02:57:52;;;;;;;;;;;;;;;;;;5114493;28;19916;-82
2022/10/20 03:00:18;;;;;;;;;;;;;;;;;;5115709;28;19916;-82
2022/10/20 03:02:43;;;;;;;;;;;;;;;;;;5114784;28;19916;-82
2022/10/20 03:05:09;;;;;;;;;;;;;;;;;;5116137;28;20350;-83
2022/10/20 03:07:34;;;;;;;;;;;;;;;;;;5115826;28;19988;-82
2022/10/20 03:10:00;;;;;;;;;;;;;;;;;;5097560;28;19964;-81
2022/10/20 03:12:25;;;;;;;;;;;;;;;;;;5115603;28;19983;-81
2022/10/20 03:14:50;;;;;;;;;;;;;;;;;;5115924;28;20329;-81
2022/10/20 03:17:16;;;;;;;;;;;;;;;;;;5115653;28;20060;-81
2022/10/20 03:19:41;;;;;;;;;;;;;;;;;;5115704;28;19916;-82
2022/10/20 03:22:06;;;;;;;;;;;;;;;;;;5097423;28;20393;-82
2022/10/20 03:24:32;;;;;;;;;;;;;;;;;;5115502;28;20397;-81
2022/10/20 03:26:57;;;;;;;;;;;;;;;;;;5118663;28;20386;-81
2022/10/20 03:29:22;;;;;;;;;;;;;;;;;;5115338;28;20561;-82
2022/10/20 03:31:48;;;;;;;;;;;;;;;;;;5115809;28;20371;-81
2022/10/20 03:34:13;;;;;;;;;;;;;;;;;;5097426;28;19916;-82
2022/10/20 03:36:39;;;;;;;;;;;;;;;;;;5115213;28;19912;-82
2022/10/20 03:39:04;;;;;;;;;;;;;;;;;;5115085;28;19922;-81
2022/10/20 03:41:30;;;;;;;;;;;;;;;;;;5115061;28;19920;-80
2022/10/20 03:43:55;;;;;;;;;;;;;;;;;;5114931;28;19920;-81
2022/10/20 03:46:20;;;;;;;;;;;;;;;;;;5115458;28;19916;-81
2022/10/20 03:48:46;;;;;;;;;;;;;;;;;;5115276;28;19915;-81
2022/10/20 03:51:12;;;;;;;;;;;;;;;;;;5116969;28;19927;-81
2022/10/20 03:53:37;;;;;;;;;;;;;;;;;;5116269;28;19916;-81
2022/10/20 03:56:06;;;;;;;;;;;;;;;;;;5116106;28;19919;-81
2022/10/20 03:58:32;;;;;;;;;;;;;;;;;;5115180;28;19916;-83
2022/10/20 04:00:57;;;;;;;;;;;;;;;;;;5117171;28;19930;-82
2022/10/20 04:03:22;;;;;;;;;;;;;;;;;;5114237;28;19912;-81
2022/10/20 04:05:51;;;;;;;;;;;;;;;;;;5116432;28;19920;-79
2022/10/20 04:08:16;;;;;;;;;;;;;;;;;;5116062;28;20014;-80
2022/10/20 04:10:41;;;;;;;;;;;;;;;;;;5117236;28;19978;-81
2022/10/20 04:13:07;;;;;;;;;;;;;;;;;;5096691;28;19923;-83
2022/10/20 04:15:32;;;;;;;;;;;;;;;;;;5113889;28;19916;-82
2022/10/20 04:17:57;;;;;;;;;;;;;;;;;;5096405;28;19919;-82
2022/10/20 04:20:23;;;;;;;;;;;;;;;;;;5114889;28;19947;-83
2022/10/20 04:22:48;;;;;;;;;;;;;;;;;;5114219;28;20068;-83
2022/10/20 04:25:13;;;;;;;;;;;;;;;;;;5114476;28;19923;-82
2022/10/20 04:27:39;;;;;;;;;;;;;;;;;;5114617;28;19923;-83
2022/10/20 04:30:04;;;;;;;;;;;;;;;;;;5096521;28;19926;-83
2022/10/20 04:32:30;;;;;;;;;;;;;;;;;;5114308;28;19922;-83
2022/10/20 04:34:55;;;;;;;;;;;;;;;;;;5114473;28;19916;-83
2022/10/20 04:37:20;;;;;;;;;;;;;;;;;;5112893;28;19958;-82
2022/10/20 04:39:46;;;;;;;;;;;;;;;;;;5118782;28;19915;-82
2022/10/20 04:42:11;;;;;;;;;;;;;;;;;;5080900;28;20327;-83
2022/10/20 04:44:37;;;;;;;;;;;;;;;;;;5117114;28;19916;-81
2022/10/20 04:47:02;;;;;;;;;;;;;;;;;;5076386;28;19948;-83
2022/10/20 04:49:27;;;;;;;;;;;;;;;;;;5078234;28;20047;-79
2022/10/20 04:51:53;;;;;;;;;;;;;;;;;;5106996;28;19946;-82
2022/10/20 04:54:18;;;;;;;;;;;;;;;;;;5072841;28;20017;-83
2022/10/20 04:56:43;;;;;;;;;;;;;;;;;;5097585;28;19924;-78
2022/10/20 04:59:09;;;;;;;;;;;;;;;;;;5078793;28;19936;-80
2022/10/20 05:01:34;;;;;;;;;;;;;;;;;;5100880;28;19916;-83
2022/10/20 05:04:00;;;;;;;;;;;;;;;;;;5091103;28;19928;-79
2022/10/20 05:06:45;;;;;;;;;;;;;;;;;;5095981;28;19916;-77
2022/10/20 05:09:14;;;;;;;;;;;;;;;;;;5076537;28;19924;-78
2022/10/20 05:11:39;;;;;;;;;;;;;;;;;;5080670;28;19924;-78
2022/10/20 05:14:11;;;;;;;;;;;;;;;;;;5094495;28;19923;-80
2022/10/20 05:16:37;;;;;;;;;;;;;;;;;;5074704;28;20036;-78
2022/10/20 05:19:04;;;;;;;;;;;;;;;;;;5093177;28;21492;-81
2022/10/20 05:21:30;;;;;;;;;;;;;;;;;;5081222;28;19985;-78
2022/10/20 05:23:56;;;;;;;;;;;;;;;;;;5087977;28;20427;-78
2022/10/20 05:26:21;;;;;;;;;;;;;;;;;;5084232;28;19978;-78
2022/10/20 05:28:48;;;;;;;;;;;;;;;;;;5090730;28;19927;-79
2022/10/20 05:31:13;;;;;;;;;;;;;;;;;;5078164;28;20409;-79
2022/10/20 05:33:39;;;;;;;;;;;;;;;;;;5095329;28;19924;-78
2022/10/20 05:36:08;;;;;;;;;;;;;;;;;;5085851;28;20443;-81
2022/10/20 05:38:35;;;;;;;;;;;;;;;;;;5089201;28;19955;-80
2022/10/20 05:41:14;;;;;;;;;;;;;;;;;;5071800;28;19920;-78
2022/10/20 05:43:42;;;;;;;;;;;;;;;;;;5091747;28;19924;-79
2022/10/20 05:46:10;;;;;;;;;;;;;;;;;;5081240;28;19928;-78
2022/10/20 05:48:36;;;;;;;;;;;;;;;;;;5079801;28;20300;-78
2022/10/20 05:51:11;;;;;;;;;;;;;;;;;;5083817;28;19926;-77
2022/10/20 05:53:38;;;;;;;;;;;;;;;;;;5086783;28;19928;-79
2022/10/20 05:56:08;;;;;;;;;;;;;;;;;;5092861;28;19977;-79
2022/10/20 05:58:33;;;;;;;;;;;;;;;;;;5089080;28;19924;-77
2022/10/20 06:01:06;;;;;;;;;;;;;;;;;;5094753;28;19945;-80
2022/10/20 06:03:31;;;;;;;;;;;;;;;;;;5072171;28;20016;-79
2022/10/20 06:05:57;;;;;;;;;;;;;;;;;;5072416;28;20436;-80
2022/10/20 06:08:22;;;;;;;;;;;;;;;;;;5082806;28;19949;-79
2022/10/20 06:10:48;;;;;;;;;;;;;;;;;;5095094;28;20032;-79
2022/10/20 06:13:13;;;;;;;;;;;;;;;;;;5093670;28;19923;-78
2022/10/20 06:15:44;;;;;;;;;;;;;;;;;;5093401;28;20543;-78
2022/10/20 06:18:10;;;;;;;;;;;;;;;;;;5075584;28;19932;-77
2022/10/20 06:20:35;;;;;;;;;;;;;;;;;;5093328;28;19977;-76
2022/10/20 06:23:00;;;;;;;;;;;;;;;;;;5093945;28;19965;-78
2022/10/20 06:25:26;;;;;;;;;;;;;;;;;;5095100;28;19955;-77
2022/10/20 06:27:51;;;;;;;;;;;;;;;;;;5094222;28;19924;-76
2022/10/20 06:30:17;;;;;;;;;;;;;;;;;;5095040;28;19920;-78
2022/10/20 06:32:42;;;;;;;;;;;;;;;;;;5076222;28;19955;-80
2022/10/20 06:35:07;;;;;;;;;;;;;;;;;;5078920;28;19925;-79
2022/10/20 06:37:33;;;;;;;;;;;;;;;;;;5057548;28;19916;-79
2022/10/20 06:39:58;;;;;;;;;;;;;;;;;;5096640;28;19922;-78
2022/10/20 06:42:23;;;;;;;;;;;;;;;;;;5098049;28;19951;-81
2022/10/20 06:44:49;;;;;;;;;;;;;;;;;;5093010;28;19967;-78
2022/10/20 06:47:14;;;;;;;;;;;;;;;;;;5088457;28;19920;-78
2022/10/20 06:49:40;;;;;;;;;;;;;;;;;;5102401;28;19920;-80
2022/10/20 06:52:05;;;;;;;;;;;;;;;;;;5094116;28;19924;-80
2022/10/20 06:54:30;;;;;;;;;;;;;;;;;;5089945;28;19920;-78
2022/10/20 06:57:00;;;;;;;;;;;;;;;;;;5090541;28;19959;-74
2022/10/20 06:59:25;;;;;;;;;;;;;;;;;;5093260;28;20643;-78
2022/10/20 07:01:51;;;;;;;;;;;;;;;;;;5085326;28;20014;-77
2022/10/20 07:04:17;;;;;;;;;;;;;;;;;;5085853;28;19980;-78
2022/10/20 07:06:45;;;;;;;;;;;;;;;;;;5086371;28;20058;-78
2022/10/20 07:09:12;;;;;;;;;;;;;;;;;;5089007;28;19931;-81
2022/10/20 07:11:38;;;;;;;;;;;;;;;;;;5055260;28;19955;-80
2022/10/20 07:14:03;;;;;;;;;;;;;;;;;;5089136;28;19916;-79
2022/10/20 07:16:30;;;;;;;;;;;;;;;;;;5085921;28;19920;-80
2022/10/20 07:18:56;;;;;;;;;;;;;;;;;;5050889;28;19920;-78
2022/10/20 07:21:22;;;;;;;;;;;;;;;;;;5087667;28;20006;-81
2022/10/20 07:23:48;;;;;;;;;;;;;;;;;;5073788;28;19953;-81
2022/10/20 07:26:17;;;;;;;;;;;;;;;;;;5070997;28;20385;-81
2022/10/20 07:28:43;;;;;;;;;;;;;;;;;;5082490;28;19933;-81
2022/10/20 07:31:09;;;;;;;;;;;;;;;;;;5088663;28;19936;-79
2022/10/20 07:33:35;;;;;;;;;;;;;;;;;;5069982;28;20345;-83
2022/10/20 07:36:00;;;;;;;;;;;;;;;;;;5090172;28;19923;-83
2022/10/20 07:38:26;;;;;;;;;;;;;;;;;;5077078;28;19978;-81
2022/10/20 07:40:51;;;;;;;;;;;;;;;;;;5054459;28;19959;-84
2022/10/20 07:43:34;;;;;;;;;;;;;;;;;;5069884;28;20417;-83
2022/10/20 07:46:01;;;;;;;;;;;;;;;;;;5070218;28;20308;-84
2022/10/20 07:48:26;;;;;;;;;;;;;;;;;;5094647;28;19916;-87
2022/10/20 07:50:53;;;;;;;;;;;;;;;;;;5096851;28;19965;-85
2022/10/20 07:53:31;;;;;;;;;;;;;;;;;;5097887;28;19973;-87
2022/10/20 07:55:56;;;;;;;;;;;;;;;;;;5099348;28;19938;-86
2022/10/20 07:58:22;;;;;;;;;;;;;;;;;;5081645;28;20347;-86
2022/10/20 08:00:47;;;;;;;;;;;;;;;;;;5088440;28;20092;-84
2022/10/20 08:03:17;;;;;;;;;;;;;;;;;;5106761;28;19919;-84
2022/10/20 08:05:42;;;;;;;;;;;;;;;;;;5113126;28;19923;-84
2022/10/20 08:08:07;;;;;;;;;;;;;;;;;;5095756;28;19927;-81
2022/10/20 08:10:33;;;;;;;;;;;;;;;;;;5090539;28;19916;-80
2022/10/20 08:12:58;;;;;;;;;;;;;;;;;;5092984;28;19912;-81
2022/10/20 08:15:23;;;;;;;;;;;;;;;;;;5092581;28;20006;-82
2022/10/20 08:17:49;;;;;;;;;;;;;;;;;;5097258;28;19923;-80
2022/10/20 08:20:14;;;;;;;;;;;;;;;;;;5097911;28;19973;-80
2022/10/20 08:22:39;;;;;;;;;;;;;;;;;;5099971;28;19923;-81
2022/10/20 08:25:05;;;;;;;;;;;;;;;;;;5080433;28;19916;-82
2022/10/20 08:27:30;;;;;;;;;;;;;;;;;;5098207;28;20341;-80
2022/10/20 08:29:55;;;;;;;;;;;;;;;;;;5099160;28;19916;-81
2022/10/20 08:32:21;;;;;;;;;;;;;;;;;;5104117;28;19916;-80
2022/10/20 08:34:47;;;;;;;;;;;;;;;;;;5103703;28;19915;-80
2022/10/20 08:37:13;;;;;;;;;;;;;;;;;;5121163;28;19975;-82
2022/10/20 08:39:38;;;;;;;;;;;;;;;;;;5120408;28;19919;-82
2022/10/20 08:42:03;;;;;;;;;;;;;;;;;;5105114;28;20333;-80
2022/10/20 08:44:30;;;;;;;;;;;;;;;;;;5105434;28;19925;-81
2022/10/20 08:46:55;;;;;;;;;;;;;;;;;;5083684;28;20357;-80
2022/10/20 08:49:25;;;;;;;;;;;;;;;;;;5083399;28;19920;-81
2022/10/20 08:51:50;;;;;;;;;;;;;;;;;;5069821;28;19988;-81
2022/10/20 08:54:16;;;;;;;;;;;;;;;;;;5098609;28;19928;-80
2022/10/20 08:56:43;;;;;;;;;;;;;;;;;;5096990;28;19922;-80
2022/10/20 08:59:26;;;;;;;;;;;;;;;;;;5094998;28;19920;-78
2022/10/20 09:01:52;;;;;;;;;;;;;;;;;;5095548;28;19924;-80
2022/10/20 09:04:28;;;;;;;;;;;;;;;;;;5061332;28;20361;-80
2022/10/20 09:06:57;;;;;;;;;;;;;;;;;;5105164;28;20374;-79
2022/10/20 09:09:22;;;;;;;;;;;;;;;;;;5095236;28;19920;-80
2022/10/20 09:11:48;;;;;;;;;;;;;;;;;;5103205;28;19923;-79
2022/10/20 09:14:15;;;;;;;;;;;;;;;;;;5100244;28;19927;-79
2022/10/20 09:16:41;;;;;;;;;;;;;;;;;;5077162;28;19989;-78
2022/10/20 09:19:18;;;;;;;;;;;;;;;;;;5103904;28;19945;-79
2022/10/20 09:21:45;;;;;;;;;;;;;;;;;;5075836;28;19924;-82
2022/10/20 09:24:10;;;;;;;;;;;;;;;;;;5087808;28;19928;-79
2022/10/20 09:26:43;;;;;;;;;;;;;;;;;;5078220;28;20023;-80
2022/10/20 09:29:14;;;;;;;;;;;;;;;;;;5095223;28;19927;-84
2022/10/20 09:31:41;;;;;;;;;;;;;;;;;;5091799;28;19946;-77
2022/10/20 09:34:26;;;;;;;;;;;;;;;;;;5082860;28;19920;-77
2022/10/20 09:37:20;;;;;;;;;;;;;;;;;;5111594;28;19920;-79
2022/10/20 09:39:49;;;;;;;;;;;;;;;;;;5068639;28;20079;-78
2022/10/20 09:42:17;;;;;;;;;;;;;;;;;;5089663;28;19954;-81
2022/10/20 09:44:53;;;;;;;;;;;;;;;;;;5094036;28;20010;-79
2022/10/20 09:47:19;;;;;;;;;;;;;;;;;;5074653;28;19924;-81
2022/10/20 09:49:45;;;;;;;;;;;;;;;;;;5097011;28;19920;-79
2022/10/20 09:52:22;;;;;;;;;;;;;;;;;;5086896;28;19924;-80
2022/10/20 09:54:48;;;;;;;;;;;;;;;;;;5072606;28;20346;-82
2022/10/20 09:57:17;;;;;;;;;;;;;;;;;;5054952;28;19920;-82
2022/10/20 09:59:44;;;;;;;;;;;;;;;;;;5080520;28;21584;-85
2022/10/20 10:02:13;;;;;;;;;;;;;;;;;;5087836;28;20273;-79
2022/10/20 10:04:39;;;;;;;;;;;;;;;;;;5085391;28;19929;-79
2022/10/20 10:07:05;;;;;;;;;;;;;;;;;;5082260;28;19934;-79
2022/10/20 10:09:40;;;;;;;;;;;;;;;;;;5101486;28;20273;-79
2022/10/20 10:12:11;;;;;;;;;;;;;;;;;;5080241;28;19949;-81
2022/10/20 10:17:30;;;;;;;;;;;;;;;;;;5144252;22;20410;-78
2022/10/20 10:20:11;;;;;;;;;;;;;;;;;;5106961;27;20320;-79
2022/10/20 10:22:36;;;;;;;;;;;;;;;;;;5115618;27;20006;-79
2022/10/20 10:25:02;;;;;;;;;;;;;;;;;;5132921;27;20006;-77
2022/10/20 10:27:57;;;;;;;;;;;;;;;;;;5111453;27;19958;-79
2022/10/20 10:30:41;;;;;;;;;;;;;;;;;;5124158;27;20554;-78
2022/10/20 10:33:21;;;;;;;;;;;;;;;;;;5114092;27;19939;-78
2022/10/20 10:35:46;;;;;;;;;;;;;;;;;;5105732;27;19947;-78
2022/10/20 10:38:12;;;;;;;;;;;;;;;;;;5110448;27;20348;-76
2022/10/20 10:40:57;;;;;;;;;;;;;;;;;;5084594;27;20101;-81
2022/10/20 10:43:41;;;;;;;;;;;;;;;;;;5120173;27;20261;-78
2022/10/20 10:46:07;;;;;;;;;;;;;;;;;;5131866;27;19926;-77
2022/10/20 10:48:51;;;;;;;;;;;;;;;;;;5112493;27;19927;-79
2022/10/20 10:51:35;;;;;;;;;;;;;;;;;;5135017;27;19920;-78
2022/10/20 10:54:07;;;;;;;;;;;;;;;;;;5142640;27;19922;-77
2022/10/20 10:56:34;;;;;;;;;;;;;;;;;;5148475;27;19983;-80
2022/10/20 10:59:12;;;;;;;;;;;;;;;;;;5115610;27;19926;-79
2022/10/20 11:01:38;;;;;;;;;;;;;;;;;;5114986;27;19931;-78
2022/10/20 11:04:09;;;;;;;;;;;;;;;;;;5151682;27;20262;-78
2022/10/20 11:06:34;;;;;;;;;;;;;;;;;;5148116;27;19919;-79
2022/10/20 11:09:07;;;;;;;;;;;;;;;;;;5132690;27;19919;-79
2022/10/20 11:11:51;;;;;;;;;;;;;;;;;;5136487;27;20007;-79
2022/10/20 11:14:16;;;;;;;;;;;;;;;;;;5156129;27;19919;-78
2022/10/20 11:16:48;;;;;;;;;;;;;;;;;;5150782;27;19944;-77
2022/10/20 11:19:16;;;;;;;;;;;;;;;;;;5159711;27;19923;-78
2022/10/20 11:22:00;;;;;;;;;;;;;;;;;;5162960;27;19919;-81
2022/10/20 11:24:28;;;;;;;;;;;;;;;;;;5131856;27;20201;-80
2022/10/20 11:27:02;;;;;;;;;;;;;;;;;;5150287;27;19919;-81
2022/10/20 11:29:41;;;;;;;;;;;;;;;;;;5111225;27;19927;-81
2022/10/20 11:32:08;;;;;;;;;;;;;;;;;;5112877;27;19920;-79
2022/10/20 11:34:44;;;;;;;;;;;;;;;;;;5104244;27;19923;-85
2022/10/20 11:37:09;;;;;;;;;;;;;;;;;;5109958;27;19962;-80
2022/10/20 11:39:35;;;;;;;;;;;;;;;;;;5126733;27;19951;-82
2022/10/20 11:42:04;;;;;;;;;;;;;;;;;;5110162;27;19915;-79
2022/10/20 11:44:34;;;;;;;;;;;;;;;;;;5092564;27;20266;-84
2022/10/20 11:47:18;;;;;;;;;;;;;;;;;;5111570;27;20005;-79
2022/10/20 11:49:44;;;;;;;;;;;;;;;;;;5115216;27;20544;-78
2022/10/20 11:52:22;;;;;;;;;;;;;;;;;;5130756;27;20010;-77
2022/10/20 11:54:50;;;;;;;;;;;;;;;;;;5150247;27;19915;-79
2022/10/20 11:57:33;;;;;;;;;;;;;;;;;;5150904;27;19938;-80
2022/10/20 12:00:11;;;;;;;;;;;;;;;;;;5132438;27;20023;-79
2022/10/20 12:02:36;;;;;;;;;;;;;;;;;;5150329;27;19923;-78
2022/10/20 12:05:28;;;;;;;;;;;;;;;;;;5153570;27;19938;-80
2022/10/20 12:07:57;;;;;;;;;;;;;;;;;;5152960;27;19915;-79
2022/10/20 12:10:35;;;;;;;;;;;;;;;;;;5134572;27;19942;-77
2022/10/20 12:13:03;;;;;;;;;;;;;;;;;;5154001;27;19931;-79
2022/10/20 12:15:29;;;;;;;;;;;;;;;;;;5135928;27;19999;-82
2022/10/20 12:17:56;;;;;;;;;;;;;;;;;;5136852;27;20372;-82
2022/10/20 12:20:21;;;;;;;;;;;;;;;;;;5136301;27;19915;-78
2022/10/20 12:22:50;;;;;;;;;;;;;;;;;;5155314;27;19915;-80
2022/10/20 12:25:15;;;;;;;;;;;;;;;;;;5138455;27;19915;-82
2022/10/20 12:27:41;;;;;;;;;;;;;;;;;;5156361;27;19915;-79
2022/10/20 12:30:19;;;;;;;;;;;;;;;;;;5137821;27;20235;-80
2022/10/20 12:32:54;;;;;;;;;;;;;;;;;;5156162;27;20009;-79
2022/10/20 12:35:19;;;;;;;;;;;;;;;;;;5156350;27;20221;-79
2022/10/20 12:37:56;;;;;;;;;;;;;;;;;;5155974;27;20074;-79
2022/10/20 12:40:25;;;;;;;;;;;;;;;;;;5155975;27;20391;-79
2022/10/20 12:42:51;;;;;;;;;;;;;;;;;;5137622;27;19939;-79
2022/10/20 12:45:19;;;;;;;;;;;;;;;;;;5137883;27;19922;-80
2022/10/20 12:47:52;;;;;;;;;;;;;;;;;;5137323;27;19971;-79
2022/10/20 12:50:23;;;;;;;;;;;;;;;;;;5137068;27;20351;-79
2022/10/20 12:52:49;;;;;;;;;;;;;;;;;;5155832;27;19915;-78
2022/10/20 12:55:24;;;;;;;;;;;;;;;;;;5156136;27;19921;-78
2022/10/20 12:57:49;;;;;;;;;;;;;;;;;;5119986;27;19915;-79
2022/10/20 13:00:14;;;;;;;;;;;;;;;;;;5138333;27;19922;-79
2022/10/20 13:02:44;;;;;;;;;;;;;;;;;;5159437;27;19919;-79
2022/10/20 13:05:12;;;;;;;;;;;;;;;;;;5140548;27;19922;-79
2022/10/20 13:07:47;;;;;;;;;;;;;;;;;;5159847;27;19968;-79
2022/10/20 13:10:31;;;;;;;;;;;;;;;;;;5159918;27;20243;-79
2022/10/20 13:13:02;;;;;;;;;;;;;;;;;;5140720;27;19936;-79
2022/10/20 13:15:28;;;;;;;;;;;;;;;;;;5158979;27;19938;-79
2022/10/20 13:17:57;;;;;;;;;;;;;;;;;;5140834;27;20217;-79
2022/10/20 13:20:28;;;;;;;;;;;;;;;;;;5123175;27;19922;-80
2022/10/20 13:22:54;;;;;;;;;;;;;;;;;;5140450;27;19947;-80
2022/10/20 13:25:38;;;;;;;;;;;;;;;;;;5140431;27;20197;-80
2022/10/20 13:28:13;;;;;;;;;;;;;;;;;;5140391;27;19971;-78
2022/10/20 13:30:51;;;;;;;;;;;;;;;;;;5123312;27;20316;-79
2022/10/20 13:33:42;;;;;;;;;;;;;;;;;;5158627;27;19915;-79
2022/10/20 13:36:17;;;;;;;;;;;;;;;;;;5154667;27;19964;-79
2022/10/20 13:38:53;;;;;;;;;;;;;;;;;;5159006;27;19915;-80
2022/10/20 13:41:45;;;;;;;;;;;;;;;;;;5140800;27;19922;-79
2022/10/20 13:44:35;;;;;;;;;;;;;;;;;;5154655;27;19915;-78
2022/10/20 13:47:00;;;;;;;;;;;;;;;;;;5159376;27;19946;-79
2022/10/20 13:49:29;;;;;;;;;;;;;;;;;;5158635;27;20256;-79
2022/10/20 13:51:56;;;;;;;;;;;;;;;;;;5158758;27;19922;-79
2022/10/20 13:54:23;;;;;;;;;;;;;;;;;;5140248;27;19915;-78
2022/10/20 13:56:48;;;;;;;;;;;;;;;;;;5158857;27;19915;-78
2022/10/20 13:59:13;;;;;;;;;;;;;;;;;;5139925;27;19967;-79
2022/10/20 14:01:39;;;;;;;;;;;;;;;;;;5158839;27;19966;-79
2022/10/20 14:04:23;;;;;;;;;;;;;;;;;;5158219;27;20001;-79
2022/10/20 14:06:49;;;;;;;;;;;;;;;;;;5158358;27;19937;-79
2022/10/20 14:09:15;;;;;;;;;;;;;;;;;;5158557;27;19916;-79
2022/10/20 14:11:40;;;;;;;;;;;;;;;;;;5139084;27;19915;-79
2022/10/20 14:14:08;;;;;;;;;;;;;;;;;;5139983;27;19921;-78
2022/10/20 14:16:34;;;;;;;;;;;;;;;;;;5158063;27;20236;-78
2022/10/20 14:19:04;;;;;;;;;;;;;;;;;;5139829;27;20011;-83
2022/10/20 14:21:38;;;;;;;;;;;;;;;;;;5140017;27;20291;-79
2022/10/20 14:24:03;;;;;;;;;;;;;;;;;;5158113;27;19915;-80
2022/10/20 14:26:28;;;;;;;;;;;;;;;;;;5139559;27;19915;-79
2022/10/20 14:28:54;;;;;;;;;;;;;;;;;;5139437;27;19915;-79
2022/10/20 14:31:20;;;;;;;;;;;;;;;;;;5139041;27;19915;-79
2022/10/20 14:33:45;;;;;;;;;;;;;;;;;;5157905;27;19921;-80
2022/10/20 14:36:17;;;;;;;;;;;;;;;;;;5157975;27;19915;-80
2022/10/20 14:38:44;;;;;;;;;;;;;;;;;;5157641;27;19915;-79
2022/10/20 14:41:09;;;;;;;;;;;;;;;;;;5122581;27;19923;-81
2022/10/20 14:43:39;;;;;;;;;;;;;;;;;;5122653;27;19911;-79
2022/10/20 14:46:05;;;;;;;;;;;;;;;;;;5139120;27;20017;-80
2022/10/20 14:48:32;;;;;;;;;;;;;;;;;;5139759;27;20086;-80
2022/10/20 14:50:58;;;;;;;;;;;;;;;;;;5157997;27;19932;-80
2022/10/20 14:53:30;;;;;;;;;;;;;;;;;;5139051;27;19919;-79
2022/10/20 14:55:58;;;;;;;;;;;;;;;;;;5139714;27;20349;-79
2022/10/20 14:58:34;;;;;;;;;;;;;;;;;;5122021;27;19915;-80
2022/10/20 15:01:12;;;;;;;;;;;;;;;;;;5138952;27;19915;-79
2022/10/20 15:03:38;;;;;;;;;;;;;;;;;;5157402;27;19919;-79
2022/10/20 15:06:03;;;;;;;;;;;;;;;;;;5157424;27;20328;-81
2022/10/20 15:08:28;;;;;;;;;;;;;;;;;;5139013;27;19922;-79
2022/10/20 15:10:54;;;;;;;;;;;;;;;;;;5138845;27;20007;-80
2022/10/20 15:13:20;;;;;;;;;;;;;;;;;;5121432;27;19922;-80
2022/10/20 15:15:45;;;;;;;;;;;;;;;;;;5138420;27;19923;-79
2022/10/20 15:18:17;;;;;;;;;;;;;;;;;;5157233;27;20373;-80
2022/10/20 15:20:42;;;;;;;;;;;;;;;;;;5157192;27;19915;-80
2022/10/20 15:23:08;;;;;;;;;;;;;;;;;;5156451;27;19964;-80
2022/10/20 15:25:40;;;;;;;;;;;;;;;;;;5157130;27;19915;-80
2022/10/20 15:28:05;;;;;;;;;;;;;;;;;;5157217;27;19915;-80
2022/10/20 15:30:31;;;;;;;;;;;;;;;;;;5138280;27;19915;-80
2022/10/20 15:32:56;;;;;;;;;;;;;;;;;;5138698;27;20009;-79
2022/10/20 15:35:23;;;;;;;;;;;;;;;;;;5156619;27;19915;-80
2022/10/20 15:37:51;;;;;;;;;;;;;;;;;;5138441;27;19915;-80
2022/10/20 15:40:17;;;;;;;;;;;;;;;;;;5156584;27;19915;-80
2022/10/20 15:42:42;;;;;;;;;;;;;;;;;;5156567;27;19922;-79
2022/10/20 15:45:27;;;;;;;;;;;;;;;;;;5156826;27;20376;-81
2022/10/20 15:47:52;;;;;;;;;;;;;;;;;;5156606;27;19915;-80
2022/10/20 15:50:18;;;;;;;;;;;;;;;;;;5138330;27;19922;-79
2022/10/20 15:52:43;;;;;;;;;;;;;;;;;;5156667;27;19915;-80
2022/10/20 15:55:24;;;;;;;;;;;;;;;;;;5156481;27;19921;-80
2022/10/20 15:57:49;;;;;;;;;;;;;;;;;;5137602;27;20381;-80
2022/10/20 16:00:15;;;;;;;;;;;;;;;;;;5156247;27;19915;-80
2022/10/20 16:02:40;;;;;;;;;;;;;;;;;;5137688;27;19983;-79
2022/10/20 16:05:05;;;;;;;;;;;;;;;;;;5137836;27;19998;-78
2022/10/20 16:07:31;;;;;;;;;;;;;;;;;;5156890;27;20308;-80
2022/10/20 16:09:56;;;;;;;;;;;;;;;;;;5156518;27;19965;-80
2022/10/20 16:12:21;;;;;;;;;;;;;;;;;;5156573;27;20007;-79
2022/10/20 16:14:47;;;;;;;;;;;;;;;;;;5156283;27;20232;-81
2022/10/20 16:17:12;;;;;;;;;;;;;;;;;;5156197;27;19923;-80
2022/10/20 16:19:37;;;;;;;;;;;;;;;;;;5156444;27;20336;-79
2022/10/20 16:22:03;;;;;;;;;;;;;;;;;;5158962;27;19993;-80
2022/10/20 16:24:28;;;;;;;;;;;;;;;;;;5156004;27;20009;-80
2022/10/20 16:26:53;;;;;;;;;;;;;;;;;;5155949;27;19915;-80
2022/10/20 16:29:18;;;;;;;;;;;;;;;;;;5156700;27;20227;-79
2022/10/20 16:31:44;;;;;;;;;;;;;;;;;;5155872;27;19915;-79
2022/10/20 16:34:09;;;;;;;;;;;;;;;;;;5138998;27;19915;-80
2022/10/20 16:36:35;;;;;;;;;;;;;;;;;;5160252;27;19962;-80
2022/10/20 16:39:00;;;;;;;;;;;;;;;;;;5160075;27;19919;-81
2022/10/20 16:41:25;;;;;;;;;;;;;;;;;;5159815;27;19918;-79
2022/10/20 16:43:51;;;;;;;;;;;;;;;;;;5160109;27;19915;-80
2022/10/20 16:46:16;;;;;;;;;;;;;;;;;;5141598;27;19915;-80
2022/10/20 16:48:41;;;;;;;;;;;;;;;;;;5141906;27;20221;-80
2022/10/20 16:51:07;;;;;;;;;;;;;;;;;;5141266;27;20010;-79
2022/10/20 16:53:33;;;;;;;;;;;;;;;;;;5159813;27;20006;-81
2022/10/20 16:55:58;;;;;;;;;;;;;;;;;;5160116;27;19968;-81